Time;durP1;ratioP1;P1;durP2;ratioP2;P2;SDS_P1;SDS_P2;PMS_P1;PMS_P2;Temp;Humidity;BMP_temperature;BMP_pressure;BME280_temperature;BME280_humidity;BME280_pressure;Samples;Min_cycle;Max_cycle;Signal;HPM_P1;HPM_P2
2023/06/05 00:01:41;;;;;;;15.13;6.88;;;10.30;99.90;;;;;;5048220;28;20434;-63
2023/06/05 00:04:06;;;;;;;12.68;7.38;;;10.20;99.90;;;;;;5049280;28;20112;-65
2023/06/05 00:06:33;;;;;;;17.90;7.78;;;10.20;99.90;;;;;;5046659;28;20245;-66
2023/06/05 00:08:58;;;;;;;13.73;6.72;;;10.20;99.90;;;;;;5053796;28;20406;-66
2023/06/05 00:11:25;;;;;;;14.82;7.28;;;10.10;99.90;;;;;;5054659;28;20037;-63
2023/06/05 00:13:51;;;;;;;14.35;7.35;;;10.10;99.90;;;;;;5064368;28;20510;-65
2023/06/05 00:16:17;;;;;;;16.17;7.95;;;10.00;99.90;;;;;;5047128;28;20048;-65
2023/06/05 00:18:45;;;;;;;15.07;8.13;;;10.00;99.90;;;;;;5046141;28;20045;-64
2023/06/05 00:21:15;;;;;;;16.85;8.48;;;10.00;99.90;;;;;;5047696;28;20536;-65
2023/06/05 00:23:41;;;;;;;17.33;8.57;;;10.00;99.90;;;;;;5047119;28;20041;-64
2023/06/05 00:26:07;;;;;;;18.33;8.65;;;10.00;99.90;;;;;;5031677;28;20049;-66
2023/06/05 00:28:33;;;;;;;17.92;8.07;;;10.00;99.90;;;;;;5031253;28;20052;-66
2023/06/05 00:31:00;;;;;;;16.50;8.43;;;10.00;99.90;;;;;;5060362;28;20102;-65
2023/06/05 00:33:26;;;;;;;14.05;8.15;;;10.00;99.90;;;;;;5066231;28;20511;-66
2023/06/05 00:35:52;;;;;;;15.52;8.00;;;10.00;99.90;;;;;;5065712;28;20395;-66
2023/06/05 00:38:18;;;;;;;15.35;8.00;;;10.00;99.90;;;;;;5065514;28;20098;-66
2023/06/05 00:40:44;;;;;;;20.55;8.68;;;10.00;99.90;;;;;;5059237;28;20044;-66
2023/06/05 00:43:10;;;;;;;17.70;7.88;;;10.00;99.90;;;;;;5047304;28;20049;-66
2023/06/05 00:45:36;;;;;;;16.05;8.57;;;10.00;99.90;;;;;;5048267;28;20166;-65
2023/06/05 00:48:02;;;;;;;14.18;8.32;;;10.00;99.90;;;;;;5046347;28;20045;-66
2023/06/05 00:50:32;;;;;;;17.98;7.38;;;10.00;99.90;;;;;;5046344;28;20084;-66
2023/06/05 00:52:58;;;;;;;17.08;7.68;;;10.00;99.90;;;;;;5061003;28;20123;-64
2023/06/05 00:55:25;;;;;;;14.13;7.68;;;10.00;99.90;;;;;;5046063;28;20056;-65
2023/06/05 00:57:51;;;;;;;12.63;7.00;;;10.00;99.90;;;;;;5045944;28;20514;-66
2023/06/05 01:00:17;;;;;;;13.50;7.22;;;10.00;99.90;;;;;;5046152;28;20103;-66
2023/06/05 01:02:43;;;;;;;18.33;8.38;;;10.00;99.90;;;;;;5047549;28;20512;-65
2023/06/05 01:05:09;;;;;;;14.98;8.30;;;9.90;99.90;;;;;;5046544;28;20128;-66
2023/06/05 01:07:37;;;;;;;15.38;8.18;;;9.90;99.90;;;;;;5060957;28;20907;-65
2023/06/05 01:10:08;;;;;;;14.63;7.90;;;9.90;99.90;;;;;;5032774;28;20044;-67
2023/06/05 01:12:45;;;;;;;17.30;8.70;;;9.90;99.90;;;;;;5062883;28;20043;-64
2023/06/05 01:15:11;;;;;;;15.68;8.32;;;9.90;99.90;;;;;;5047026;28;20037;-65
2023/06/05 01:17:38;;;;;;;19.08;9.00;;;9.90;99.90;;;;;;5062073;28;20111;-64
2023/06/05 01:20:07;;;;;;;15.02;8.10;;;9.80;99.90;;;;;;5046422;28;20044;-65
2023/06/05 01:22:34;;;;;;;16.58;8.70;;;9.80;99.90;;;;;;5043435;28;20041;-66
2023/06/05 01:25:01;;;;;;;16.35;7.82;;;9.80;99.90;;;;;;5045846;28;20040;-65
2023/06/05 01:27:52;;;;;;;12.38;8.07;;;9.80;99.90;;;;;;5047202;28;20041;-64
2023/06/05 01:30:40;;;;;;;15.80;7.40;;;9.80;99.90;;;;;;5046367;28;20051;-65
2023/06/05 01:33:19;;;;;;;15.50;8.05;;;9.80;99.90;;;;;;5047325;28;20029;-66
2023/06/05 01:35:51;;;;;;;16.83;8.43;;;9.90;99.90;;;;;;5045012;28;20044;-67
2023/06/05 01:38:18;;;;;;;15.27;7.97;;;9.90;99.90;;;;;;5044669;28;20033;-66
2023/06/05 01:40:46;;;;;;;15.13;7.57;;;9.90;99.90;;;;;;5028456;28;20531;-66
2023/06/05 01:43:12;;;;;;;13.90;7.32;;;9.90;99.90;;;;;;5028974;28;20037;-65
2023/06/05 01:45:40;;;;;;;15.52;7.47;;;10.00;99.90;;;;;;5044827;28;20048;-65
2023/06/05 01:48:10;;;;;;;13.88;6.18;;;10.00;99.90;;;;;;5045217;28;20091;-66
2023/06/05 01:50:37;;;;;;;13.85;6.45;;;10.00;99.90;;;;;;5044763;28;20450;-67
2023/06/05 01:53:04;;;;;;;12.55;6.75;;;10.10;99.90;;;;;;5028088;28;20171;-64
2023/06/05 01:55:30;;;;;;;11.38;6.60;;;10.10;99.90;;;;;;5061861;28;20714;-64
2023/06/05 01:57:56;;;;;;;12.80;6.88;;;10.10;99.90;;;;;;5064107;28;20266;-66
2023/06/05 02:00:22;;;;;;;11.90;6.63;;;10.20;99.90;;;;;;5059130;28;20051;-65
2023/06/05 02:02:49;;;;;;;12.63;6.63;;;10.20;99.90;;;;;;5044277;28;20382;-66
2023/06/05 02:05:16;;;;;;;12.95;6.45;;;10.20;99.90;;;;;;5045087;28;20036;-66
2023/06/05 02:07:55;;;;;;;11.80;6.35;;;10.20;99.90;;;;;;5044912;28;20036;-64
2023/06/05 02:10:20;;;;;;;11.18;6.82;;;10.20;99.90;;;;;;5064122;28;20054;-65
2023/06/05 02:12:47;;;;;;;11.90;6.50;;;10.20;99.90;;;;;;5064888;28;20048;-65
2023/06/05 02:15:13;;;;;;;11.77;5.97;;;10.20;99.90;;;;;;5059031;28;20119;-63
2023/06/05 02:17:44;;;;;;;12.85;6.65;;;10.30;99.90;;;;;;5046115;28;20040;-64
2023/06/05 02:20:12;;;;;;;17.73;6.55;;;10.30;99.90;;;;;;5044979;28;20087;-65
2023/06/05 02:22:40;;;;;;;13.02;6.85;;;10.30;99.90;;;;;;5027006;28;20043;-66
2023/06/05 02:25:06;;;;;;;12.27;6.43;;;10.30;99.90;;;;;;5037816;28;20133;-66
2023/06/05 02:27:31;;;;;;;20.33;7.28;;;10.30;99.90;;;;;;5048231;28;20122;-66
2023/06/05 02:29:57;;;;;;;10.63;6.10;;;10.30;99.90;;;;;;5043373;28;20045;-67
2023/06/05 02:32:26;;;;;;;13.88;6.20;;;10.30;99.90;;;;;;5045252;28;20419;-64
2023/06/05 02:34:56;;;;;;;10.02;6.32;;;10.30;99.90;;;;;;5045967;28;20381;-66
2023/06/05 02:37:24;;;;;;;14.00;6.88;;;10.30;99.90;;;;;;5058712;28;20802;-68
2023/06/05 02:39:50;;;;;;;13.43;6.85;;;10.30;99.90;;;;;;5043879;28;20047;-67
2023/06/05 02:42:18;;;;;;;11.18;7.03;;;10.30;99.90;;;;;;5044080;28;20037;-66
2023/06/05 02:44:45;;;;;;;13.57;6.82;;;10.30;99.90;;;;;;5029333;28;20037;-65
2023/06/05 02:47:10;;;;;;;11.50;6.82;;;10.30;99.90;;;;;;5045416;28;20562;-64
2023/06/05 02:49:37;;;;;;;10.73;6.30;;;10.20;99.90;;;;;;5046311;28;20084;-65
2023/06/05 02:52:03;;;;;;;13.52;7.32;;;10.30;99.90;;;;;;5026806;28;20083;-65
2023/06/05 02:54:29;;;;;;;11.75;6.78;;;10.20;99.90;;;;;;5045381;28;20040;-66
2023/06/05 02:56:56;;;;;;;13.70;7.68;;;10.20;99.90;;;;;;5028248;28;20226;-65
2023/06/05 02:59:24;;;;;;;14.43;7.18;;;10.30;99.90;;;;;;5049641;28;20357;-64
2023/06/05 03:01:52;;;;;;;12.57;6.47;;;10.30;99.90;;;;;;5047691;28;20388;-65
2023/06/05 03:04:20;;;;;;;10.88;7.35;;;10.30;99.90;;;;;;5065033;28;20531;-63
2023/06/05 03:06:50;;;;;;;11.77;6.50;;;10.30;99.90;;;;;;5057668;28;20094;-68
2023/06/05 03:09:17;;;;;;;13.07;6.60;;;10.30;99.90;;;;;;5054429;28;20045;-65
2023/06/05 03:11:43;;;;;;;11.18;5.97;;;10.30;99.90;;;;;;5064660;28;20522;-66
2023/06/05 03:14:09;;;;;;;12.48;6.97;;;10.30;99.90;;;;;;5065733;28;20101;-65
2023/06/05 03:16:41;;;;;;;15.52;6.07;;;10.40;99.90;;;;;;5029969;28;20077;-66
2023/06/05 03:19:08;;;;;;;13.93;6.50;;;10.40;99.90;;;;;;5043953;28;20070;-64
2023/06/05 03:21:35;;;;;;;14.63;6.07;;;10.40;99.90;;;;;;5060424;28;20484;-65
2023/06/05 03:24:01;;;;;;;16.75;6.05;;;10.50;99.90;;;;;;5060329;28;20562;-66
2023/06/05 03:26:28;;;;;;;11.80;6.28;;;10.50;99.90;;;;;;5044153;28;20041;-67
2023/06/05 03:28:54;;;;;;;9.57;6.18;;;10.50;99.90;;;;;;5044340;28;20052;-65
2023/06/05 03:31:20;;;;;;;10.10;6.43;;;10.50;99.90;;;;;;5027382;28;20041;-68
2023/06/05 03:33:46;;;;;;;13.10;6.40;;;10.50;99.90;;;;;;5047345;28;20056;-65
2023/06/05 03:36:11;;;;;;;12.25;6.53;;;10.50;99.90;;;;;;5048893;28;20217;-64
2023/06/05 03:38:37;;;;;;;11.52;6.57;;;10.40;99.90;;;;;;5046794;28;20588;-67
2023/06/05 03:41:03;;;;;;;11.85;6.97;;;10.40;99.90;;;;;;5036053;28;20044;-65
2023/06/05 03:43:30;;;;;;;13.50;6.70;;;10.40;99.90;;;;;;5051005;28;20040;-64
2023/06/05 03:45:56;;;;;;;13.63;7.35;;;10.40;99.90;;;;;;5074355;28;20146;-64
2023/06/05 03:48:22;;;;;;;14.07;7.45;;;10.40;99.90;;;;;;5062821;28;20839;-65
2023/06/05 03:50:51;;;;;;;11.52;6.95;;;10.40;99.90;;;;;;5066491;28;20040;-67
2023/06/05 03:53:18;;;;;;;14.05;6.70;;;10.40;99.90;;;;;;5044786;28;20049;-64
2023/06/05 03:55:49;;;;;;;13.27;6.25;;;10.40;99.90;;;;;;5047388;28;20138;-65
2023/06/05 03:58:15;;;;;;;13.82;6.72;;;10.40;99.90;;;;;;5029364;28;20053;-63
2023/06/05 04:00:42;;;;;;;12.25;6.40;;;10.40;99.90;;;;;;5048032;28;20059;-64
2023/06/05 04:03:10;;;;;;;14.70;7.90;;;10.40;99.90;;;;;;5059668;28;20051;-64
2023/06/05 04:05:39;;;;;;;13.45;8.00;;;10.40;99.90;;;;;;5049621;28;20106;-67
2023/06/05 04:08:06;;;;;;;15.50;8.35;;;10.40;99.90;;;;;;5046231;28;20033;-65
2023/06/05 04:10:32;;;;;;;14.82;10.30;;;10.40;99.90;;;;;;5029984;28;20056;-64
2023/06/05 04:12:58;;;;;;;17.00;11.27;;;10.40;99.90;;;;;;5030034;28;20045;-66
2023/06/05 04:15:25;;;;;;;19.30;12.07;;;10.40;99.90;;;;;;5053280;28;20257;-64
2023/06/05 04:17:50;;;;;;;19.50;12.52;;;10.50;99.90;;;;;;5074199;28;20044;-64
2023/06/05 04:20:16;;;;;;;21.05;13.38;;;10.50;99.90;;;;;;5049419;28;20029;-65
2023/06/05 04:22:45;;;;;;;18.17;13.30;;;10.60;99.90;;;;;;5055849;28;20048;-68
2023/06/05 04:25:12;;;;;;;20.33;14.82;;;10.60;99.90;;;;;;5045619;28;20037;-66
2023/06/05 04:27:39;;;;;;;22.13;14.85;;;10.80;99.90;;;;;;5045964;28;20051;-68
2023/06/05 04:30:09;;;;;;;22.88;15.68;;;11.10;99.90;;;;;;5029840;28;20041;-66
2023/06/05 04:32:37;;;;;;;20.38;14.07;;;11.30;99.90;;;;;;5069755;28;20040;-67
2023/06/05 04:35:11;;;;;;;41.88;14.90;;;11.60;99.90;;;;;;5065691;28;20048;-67
2023/06/05 04:37:38;;;;;;;17.60;13.27;;;11.80;99.90;;;;;;5063498;28;20167;-66
2023/06/05 04:40:05;;;;;;;15.73;11.75;;;12.10;99.90;;;;;;5065932;28;20206;-67
2023/06/05 04:42:36;;;;;;;17.63;11.90;;;12.30;99.90;;;;;;5053670;28;20170;-66
2023/06/05 04:45:04;;;;;;;15.70;10.77;;;12.40;99.90;;;;;;5062319;28;20094;-66
2023/06/05 04:47:31;;;;;;;15.90;9.85;;;12.60;99.90;;;;;;5044403;28;20060;-66
2023/06/05 04:50:03;;;;;;;12.18;8.23;;;12.70;99.90;;;;;;5046578;28;20500;-65
2023/06/05 04:52:30;;;;;;;11.02;6.65;;;12.90;99.90;;;;;;5042936;28;20059;-65
2023/06/05 04:54:57;;;;;;;14.00;6.57;;;13.00;99.90;;;;;;5045637;28;20099;-66
2023/06/05 04:57:25;;;;;;;10.48;5.50;;;13.10;99.90;;;;;;5044946;28;20041;-67
2023/06/05 04:59:52;;;;;;;9.95;5.63;;;13.30;99.90;;;;;;5045281;28;20045;-65
2023/06/05 05:02:17;;;;;;;8.60;4.90;;;13.60;99.90;;;;;;5048811;28;20113;-65
2023/06/05 05:04:43;;;;;;;8.05;5.30;;;13.70;99.90;;;;;;5064869;28;20492;-66
2023/06/05 05:07:14;;;;;;;8.73;4.57;;;13.60;99.90;;;;;;5062153;28;20615;-66
2023/06/05 05:09:41;;;;;;;11.35;4.47;;;13.60;99.90;;;;;;5047720;28;20558;-69
2023/06/05 05:12:07;;;;;;;7.35;4.53;;;13.70;99.90;;;;;;5048491;28;20041;-67
2023/06/05 05:14:32;;;;;;;9.05;3.90;;;13.80;99.90;;;;;;5055955;28;20056;-67
2023/06/05 05:16:58;;;;;;;6.57;3.50;;;13.80;99.90;;;;;;5045920;28;20416;-66
2023/06/05 05:19:24;;;;;;;8.20;3.72;;;14.00;99.90;;;;;;5062332;28;20963;-65
2023/06/05 05:21:49;;;;;;;6.72;3.50;;;14.10;99.90;;;;;;5057435;28;20499;-66
2023/06/05 05:24:15;;;;;;;8.07;3.65;;;14.20;99.90;;;;;;5045489;28;20075;-68
2023/06/05 05:26:41;;;;;;;8.43;3.78;;;14.30;99.90;;;;;;5062033;28;20041;-66
2023/06/05 05:29:07;;;;;;;9.85;3.63;;;14.30;99.90;;;;;;5044913;28;20043;-66
2023/06/05 05:31:34;;;;;;;6.85;3.45;;;14.50;99.90;;;;;;5063701;28;20062;-67
2023/06/05 05:34:00;;;;;;;8.77;3.50;;;14.70;99.90;;;;;;5077715;28;20048;-65
2023/06/05 05:36:26;;;;;;;12.63;3.40;;;14.90;99.90;;;;;;5051099;28;20039;-67
2023/06/05 05:38:52;;;;;;;8.00;3.35;;;14.80;99.90;;;;;;5063348;28;20044;-67
2023/06/05 05:41:18;;;;;;;6.78;3.25;;;14.80;99.90;;;;;;5061778;28;20041;-67
2023/06/05 05:43:44;;;;;;;8.27;3.92;;;14.90;99.90;;;;;;5044937;28;20045;-67
2023/06/05 05:46:10;;;;;;;6.60;3.40;;;14.90;99.90;;;;;;5053570;28;20047;-68
2023/06/05 05:48:37;;;;;;;6.40;3.40;;;14.60;99.90;;;;;;5062575;28;20029;-66
2023/06/05 05:51:05;;;;;;;6.78;3.38;;;14.50;99.90;;;;;;5063694;28;20869;-65
2023/06/05 05:53:31;;;;;;;8.25;4.03;;;14.30;99.90;;;;;;5063863;28;20029;-66
2023/06/05 05:55:57;;;;;;;12.35;3.95;;;14.40;99.90;;;;;;5045642;28;20055;-65
2023/06/05 05:58:23;;;;;;;7.40;3.70;;;14.40;99.90;;;;;;5064814;28;20499;-67
2023/06/05 06:00:48;;;;;;;8.63;3.55;;;14.40;99.90;;;;;;5062447;28;20518;-68
2023/06/05 06:03:15;;;;;;;8.35;3.60;;;14.30;99.90;;;;;;5061977;28;20033;-67
2023/06/05 06:05:41;;;;;;;8.10;3.35;;;14.50;99.90;;;;;;5064196;28;20145;-69
2023/06/05 06:08:07;;;;;;;8.15;3.25;;;14.50;99.90;;;;;;5064596;28;20122;-65
2023/06/05 06:10:33;;;;;;;6.93;3.25;;;14.50;99.90;;;;;;5030112;28;20131;-65
2023/06/05 06:12:59;;;;;;;11.93;3.47;;;14.40;99.90;;;;;;5044571;28;20033;-67
2023/06/05 06:15:27;;;;;;;7.40;3.08;;;14.20;99.90;;;;;;5045193;28;20036;-66
2023/06/05 06:17:53;;;;;;;7.32;3.33;;;14.20;99.90;;;;;;5027019;28;20045;-65
2023/06/05 06:20:18;;;;;;;6.28;3.08;;;14.10;99.90;;;;;;5053560;28;20032;-65
2023/06/05 06:22:44;;;;;;;7.55;3.85;;;14.00;99.90;;;;;;5063257;28;20113;-66
2023/06/05 06:25:11;;;;;;;8.40;3.50;;;13.80;99.90;;;;;;5064991;28;20039;-69
2023/06/05 06:27:38;;;;;;;7.80;3.17;;;13.70;99.90;;;;;;5059942;28;20119;-67
2023/06/05 06:30:05;;;;;;;8.13;3.08;;;13.80;99.90;;;;;;5063559;28;20149;-66
2023/06/05 06:32:30;;;;;;;9.55;3.42;;;13.90;99.90;;;;;;5044276;28;20041;-67
2023/06/05 06:34:57;;;;;;;7.10;2.88;;;13.80;99.90;;;;;;5044527;28;20044;-66
2023/06/05 06:37:22;;;;;;;7.43;3.03;;;13.60;99.90;;;;;;5056464;28;20037;-65
2023/06/05 06:39:49;;;;;;;6.72;2.95;;;13.60;99.90;;;;;;5046287;28;20043;-67
2023/06/05 06:42:14;;;;;;;6.75;3.15;;;13.70;99.90;;;;;;5063887;28;20032;-66
2023/06/05 06:44:40;;;;;;;7.53;2.92;;;13.70;99.90;;;;;;5064922;28;20047;-69
2023/06/05 06:47:07;;;;;;;6.28;2.80;;;13.80;99.90;;;;;;5044086;28;20483;-67
2023/06/05 06:49:34;;;;;;;9.63;3.45;;;13.90;99.90;;;;;;5064331;28;20056;-67
2023/06/05 06:52:00;;;;;;;7.38;2.85;;;14.10;99.90;;;;;;5063308;28;20495;-65
2023/06/05 06:54:28;;;;;;;6.75;3.03;;;14.30;99.90;;;;;;5063480;28;20131;-66
2023/06/05 06:56:54;;;;;;;7.20;2.47;;;14.60;99.90;;;;;;5080117;28;20594;-65
2023/06/05 06:59:20;;;;;;;6.07;2.95;;;14.60;99.90;;;;;;5064510;28;20059;-66
2023/06/05 07:01:48;;;;;;;6.95;2.72;;;14.60;99.90;;;;;;5047766;28;20520;-67
2023/06/05 07:04:16;;;;;;;6.88;3.00;;;14.80;99.90;;;;;;5043607;28;20056;-67
2023/06/05 07:06:44;;;;;;;5.40;2.60;;;14.90;99.90;;;;;;5042066;28;20044;-68
2023/06/05 07:09:10;;;;;;;6.95;2.85;;;15.00;99.90;;;;;;5055048;28;20043;-66
2023/06/05 07:11:36;;;;;;;6.40;2.75;;;14.70;99.90;;;;;;5063380;28;20036;-68
2023/06/05 07:14:01;;;;;;;7.15;2.70;;;14.60;99.90;;;;;;5047580;28;20138;-66
2023/06/05 07:16:27;;;;;;;6.72;2.58;;;14.50;99.90;;;;;;5047454;28;20080;-67
2023/06/05 07:18:54;;;;;;;6.57;2.92;;;14.50;99.90;;;;;;5046337;28;20045;-67
2023/06/05 07:21:20;;;;;;;8.25;2.85;;;14.50;99.90;;;;;;5063186;28;20071;-65
2023/06/05 07:23:51;;;;;;;6.72;2.78;;;14.60;99.90;;;;;;5068255;28;20040;-64
2023/06/05 07:26:21;;;;;;;8.73;2.47;;;14.60;99.90;;;;;;5049251;28;20032;-66
2023/06/05 07:28:49;;;;;;;7.25;2.60;;;14.50;99.90;;;;;;5064557;28;20044;-66
2023/06/05 07:31:15;;;;;;;6.97;2.90;;;14.50;99.90;;;;;;5063468;28;20056;-69
2023/06/05 07:33:42;;;;;;;6.35;2.83;;;14.50;99.90;;;;;;5049513;28;20032;-68
2023/06/05 07:36:08;;;;;;;6.85;3.08;;;14.50;99.90;;;;;;5063539;28;20043;-67
2023/06/05 07:38:33;;;;;;;5.88;2.78;;;14.40;99.90;;;;;;5053006;28;20632;-66
2023/06/05 07:41:01;;;;;;;5.70;2.88;;;14.30;99.90;;;;;;5061812;28;20029;-67
2023/06/05 07:43:27;;;;;;;5.20;2.45;;;14.20;99.90;;;;;;5061636;28;20039;-66
2023/06/05 07:45:56;;;;;;;6.10;2.97;;;14.30;99.90;;;;;;5059945;28;20044;-65
2023/06/05 07:48:22;;;;;;;5.43;2.50;;;14.50;99.90;;;;;;5063420;28;20036;-65
2023/06/05 07:50:47;;;;;;;10.15;3.28;;;14.60;99.90;;;;;;5062121;28;20416;-67
2023/06/05 07:53:13;;;;;;;8.95;2.88;;;14.60;99.90;;;;;;5060708;28;20040;-66
2023/06/05 07:55:38;;;;;;;6.80;3.00;;;14.70;99.90;;;;;;5064282;28;20566;-66
2023/06/05 07:58:04;;;;;;;7.70;2.78;;;14.70;99.90;;;;;;5061512;28;20095;-67
2023/06/05 08:00:30;;;;;;;5.85;3.03;;;14.80;99.90;;;;;;5062698;28;20063;-66
2023/06/05 08:02:57;;;;;;;7.85;2.83;;;14.90;99.90;;;;;;5059819;28;20411;-67
2023/06/05 08:05:22;;;;;;;5.82;3.20;;;14.90;99.90;;;;;;5045189;28;20041;-65
2023/06/05 08:07:48;;;;;;;7.68;3.08;;;15.00;99.90;;;;;;5061421;28;20047;-68
2023/06/05 08:10:14;;;;;;;9.35;3.45;;;15.00;99.90;;;;;;5061953;28;20094;-68
2023/06/05 08:12:40;;;;;;;6.22;2.88;;;15.10;99.90;;;;;;5043776;28;20051;-67
2023/06/05 08:15:06;;;;;;;8.60;3.00;;;15.20;99.90;;;;;;5060881;28;20451;-66
2023/06/05 08:17:32;;;;;;;7.47;3.30;;;15.20;99.90;;;;;;5059444;28;20090;-67
2023/06/05 08:19:58;;;;;;;6.70;3.00;;;15.30;99.90;;;;;;5059176;28;20028;-67
2023/06/05 08:22:23;;;;;;;8.00;3.17;;;15.50;99.90;;;;;;5059323;28;20044;-67
2023/06/05 08:24:50;;;;;;;9.13;3.65;;;15.70;99.90;;;;;;5062670;28;20495;-68
2023/06/05 08:27:17;;;;;;;7.13;3.03;;;15.70;99.90;;;;;;5043790;28;20076;-68
2023/06/05 08:29:43;;;;;;;5.60;2.85;;;15.70;99.90;;;;;;5060998;28;20714;-66
2023/06/05 08:32:08;;;;;;;8.30;3.03;;;15.70;99.90;;;;;;5061437;28;20036;-65
2023/06/05 08:34:35;;;;;;;7.40;3.22;;;15.60;99.90;;;;;;5061510;28;20048;-64
2023/06/05 08:37:02;;;;;;;7.28;3.50;;;15.70;99.90;;;;;;5058889;28;20044;-66
2023/06/05 08:39:31;;;;;;;6.47;2.75;;;15.70;99.90;;;;;;5093319;28;20051;-65
2023/06/05 08:42:00;;;;;;;7.13;3.28;;;15.80;99.90;;;;;;5061047;28;20035;-66
2023/06/05 08:44:27;;;;;;;9.38;3.17;;;15.90;99.90;;;;;;5061442;28;20151;-67
2023/06/05 08:47:00;;;;;;;7.30;3.25;;;15.90;99.90;;;;;;5059396;28;20064;-68
2023/06/05 08:49:31;;;;;;;8.18;3.95;;;16.00;99.90;;;;;;5042921;28;20131;-65
2023/06/05 08:52:08;;;;;;;6.72;3.67;;;16.10;99.90;;;;;;5041329;28;20048;-67
2023/06/05 08:54:38;;;;;;;5.38;2.83;;;16.10;99.90;;;;;;5059895;28;20040;-65
2023/06/05 08:57:06;;;;;;;7.50;3.90;;;16.20;99.90;;;;;;5060376;28;20612;-66
2023/06/05 08:59:32;;;;;;;7.43;3.75;;;16.30;99.90;;;;;;5060048;28;20053;-65
2023/06/05 09:01:58;;;;;;;10.77;3.88;;;16.40;99.90;;;;;;5059667;28;20044;-66
2023/06/05 09:04:25;;;;;;;7.78;3.85;;;16.40;99.90;;;;;;5060602;28;20033;-67
2023/06/05 09:06:54;;;;;;;6.72;3.67;;;16.50;99.90;;;;;;5041100;28;20044;-67
2023/06/05 09:09:20;;;;;;;8.57;4.07;;;16.50;99.90;;;;;;5030630;28;20047;-69
2023/06/05 09:11:46;;;;;;;9.88;4.88;;;16.50;99.90;;;;;;5044419;28;20040;-66
2023/06/05 09:14:12;;;;;;;7.20;4.05;;;16.50;99.90;;;;;;5050263;28;20209;-67
2023/06/05 09:16:43;;;;;;;8.07;4.13;;;16.40;99.90;;;;;;5047135;28;20084;-66
2023/06/05 09:19:12;;;;;;;8.55;4.60;;;16.50;99.90;;;;;;5047412;28;20521;-65
2023/06/05 09:21:39;;;;;;;7.63;4.07;;;16.50;99.90;;;;;;5047035;28;20051;-65
2023/06/05 09:24:18;;;;;;;9.05;5.28;;;16.50;99.90;;;;;;5032179;28;20051;-65
2023/06/05 09:27:08;;;;;;;8.98;4.45;;;16.60;99.90;;;;;;5050785;28;20048;-65
2023/06/05 09:29:38;;;;;;;7.72;4.53;;;16.50;99.90;;;;;;5050211;28;20075;-65
2023/06/05 09:32:15;;;;;;;9.75;4.38;;;16.60;99.90;;;;;;5047410;28;20128;-66
2023/06/05 09:34:41;;;;;;;12.52;4.03;;;16.60;99.90;;;;;;5045287;28;20534;-67
2023/06/05 09:37:09;;;;;;;7.93;4.05;;;16.70;99.90;;;;;;5054567;28;20050;-67
2023/06/05 09:39:39;;;;;;;8.00;4.22;;;16.70;99.90;;;;;;5043670;28;20033;-66
2023/06/05 09:42:06;;;;;;;7.90;3.88;;;16.70;99.90;;;;;;5043793;28;20048;-67
2023/06/05 09:44:33;;;;;;;7.78;4.18;;;16.80;99.90;;;;;;5058144;28;20074;-66
2023/06/05 09:47:10;;;;;;;9.95;4.85;;;16.90;99.90;;;;;;5056602;28;20043;-66
2023/06/05 09:49:38;;;;;;;6.38;3.15;;;17.00;99.90;;;;;;5057687;28;20132;-65
2023/06/05 09:52:04;;;;;;;7.40;3.85;;;17.00;99.90;;;;;;5055866;28;20388;-68
2023/06/05 09:54:31;;;;;;;7.30;3.70;;;17.00;99.90;;;;;;5075005;28;20060;-68
2023/06/05 09:57:04;;;;;;;6.63;4.10;;;17.00;99.90;;;;;;5059361;28;20395;-65
2023/06/05 09:59:32;;;;;;;8.55;4.03;;;17.00;99.90;;;;;;5057884;28;20092;-67
2023/06/05 10:02:06;;;;;;;8.02;4.32;;;17.10;99.90;;;;;;5039991;28;20634;-69
2023/06/05 10:04:47;;;;;;;10.18;4.32;;;17.10;99.90;;;;;;5060965;28;20059;-69
2023/06/05 10:07:14;;;;;;;8.35;3.90;;;17.20;99.90;;;;;;5055739;28;20040;-67
2023/06/05 10:09:41;;;;;;;8.23;4.40;;;17.20;99.90;;;;;;5057264;28;20079;-67
2023/06/05 10:12:08;;;;;;;7.53;3.88;;;17.20;99.90;;;;;;5059129;28;20487;-67
2023/06/05 10:14:40;;;;;;;8.00;3.80;;;17.20;99.80;;;;;;5059766;28;20039;-67
2023/06/05 10:17:06;;;;;;;9.70;3.88;;;17.20;99.60;;;;;;5057058;28;20052;-65
2023/06/05 10:19:32;;;;;;;7.75;4.03;;;17.30;99.70;;;;;;5076690;28;20033;-66
2023/06/05 10:21:58;;;;;;;9.02;4.53;;;17.30;99.70;;;;;;5039576;28;20372;-66
2023/06/05 10:24:42;;;;;;;8.32;4.78;;;17.30;99.50;;;;;;5059027;28;20048;-65
2023/06/05 10:27:14;;;;;;;;;;;17.30;98.60;;;;;;5059688;28;20040;-68
2023/06/05 10:29:52;;;;;;;10.05;4.80;;;17.20;99.60;;;;;;5058205;28;19989;-67
2023/06/05 10:32:42;;;;;;;8.02;4.15;;;17.30;99.60;;;;;;5058264;28;20040;-66
2023/06/05 10:35:32;;;;;;;10.70;4.75;;;17.30;99.10;;;;;;5058597;28;20510;-66
2023/06/05 10:38:21;;;;;;;9.18;4.93;;;17.30;98.70;;;;;;5073673;28;20097;-67
2023/06/05 10:41:02;;;;;;;9.63;4.80;;;17.40;98.50;;;;;;5058806;28;20527;-66
2023/06/05 10:43:49;;;;;;;8.75;4.63;;;17.30;98.40;;;;;;5057700;28;20044;-65
2023/06/05 10:46:36;;;;;;;8.02;4.15;;;17.30;99.10;;;;;;5057451;28;20055;-65
2023/06/05 10:49:05;;;;;;;10.15;5.03;;;17.40;99.20;;;;;;5040429;28;20133;-67
2023/06/05 10:51:42;;;;;;;8.40;4.45;;;17.40;98.80;;;;;;5058191;28;20045;-65
2023/06/05 10:54:15;;;;;;;11.20;5.10;;;17.30;98.70;;;;;;5076256;28;20042;-66
2023/06/05 10:56:57;;;;;;;8.40;4.47;;;17.30;98.60;;;;;;5060405;28;20044;-67
2023/06/05 10:59:24;;;;;;;7.07;3.65;;;17.20;98.30;;;;;;5057266;28;20052;-67
2023/06/05 11:02:06;;;;;;;10.43;4.57;;;17.20;99.00;;;;;;5060165;28;20040;-67
2023/06/05 11:04:46;;;;;;;9.25;4.72;;;17.30;99.20;;;;;;5061453;28;20079;-67
2023/06/05 11:07:22;;;;;;;7.25;4.13;;;17.40;99.30;;;;;;5056236;28;20055;-67
2023/06/05 11:12:40;;;;;;;8.93;4.32;;;17.70;99.60;;;;;;5059220;28;20064;-69
2023/06/05 11:15:11;;;;;;;8.10;3.80;;;17.70;98.80;;;;;;5061828;28;20447;-67
2023/06/05 11:17:39;;;;;;;7.75;4.00;;;17.70;99.20;;;;;;5042432;28;20075;-68
2023/06/05 11:20:07;;;;;;;6.75;3.88;;;17.80;99.40;;;;;;5043161;28;20532;-69
2023/06/05 11:22:33;;;;;;;8.55;4.03;;;17.80;98.90;;;;;;5042535;28;20037;-66
2023/06/05 11:25:26;;;;;;;7.22;4.05;;;17.90;99.20;;;;;;5043011;28;20480;-67
2023/06/05 11:28:07;;;;;;;8.60;4.00;;;17.90;98.70;;;;;;5044976;28;20922;-67
2023/06/05 11:30:45;;;;;;;7.57;3.92;;;17.90;98.80;;;;;;5058449;28;20083;-65
2023/06/05 11:33:19;;;;;;;8.82;3.90;;;17.90;98.60;;;;;;5043701;28;20083;-66
2023/06/05 11:35:47;;;;;;;7.00;3.00;;;18.00;98.80;;;;;;5044536;28;20044;-66
2023/06/05 11:38:18;;;;;;;9.38;3.85;;;18.10;98.80;;;;;;5042992;28;20056;-68
2023/06/05 11:40:44;;;;;;;7.70;3.72;;;18.20;98.80;;;;;;5044652;28;20077;-68
2023/06/05 11:43:12;;;;;;;8.45;3.55;;;18.10;98.10;;;;;;5043028;28;20040;-67
2023/06/05 11:45:40;;;;;;;8.05;3.60;;;18.00;98.20;;;;;;5044151;28;20115;-66
2023/06/05 11:48:13;;;;;;;9.07;3.80;;;18.10;98.00;;;;;;5036872;28;20047;-68
2023/06/05 11:50:51;;;;;;;6.25;3.45;;;18.20;98.80;;;;;;5063547;28;20041;-68
2023/06/05 11:53:18;;;;;;;8.18;3.38;;;18.30;99.00;;;;;;5046398;28;20123;-68
2023/06/05 11:55:54;;;;;;;6.60;3.33;;;18.60;98.70;;;;;;5047901;28;20041;-66
2023/06/05 11:58:28;;;;;;;7.70;3.55;;;18.70;98.20;;;;;;5036734;28;20399;-66
2023/06/05 12:01:17;;;;;;;6.70;3.33;;;18.80;98.10;;;;;;5058336;28;20544;-68
2023/06/05 12:03:44;;;;;;;7.95;3.45;;;19.00;98.10;;;;;;5064683;28;20067;-66
2023/06/05 12:06:12;;;;;;;7.50;3.30;;;19.00;97.70;;;;;;5063651;28;20546;-67
2023/06/05 12:08:39;;;;;;;7.13;3.20;;;19.10;97.60;;;;;;5063942;28;20051;-67
2023/06/05 12:11:20;;;;;;;6.50;3.05;;;19.10;97.60;;;;;;5066349;28;20049;-66
2023/06/05 12:13:54;;;;;;;8.57;3.78;;;19.00;97.70;;;;;;5040330;28;20040;-67
2023/06/05 12:16:37;;;;;;;9.68;3.95;;;19.00;97.50;;;;;;5055939;28;20043;-68
2023/06/05 12:19:17;;;;;;;6.97;3.58;;;18.90;97.60;;;;;;5078376;28;20085;-68
2023/06/05 12:21:47;;;;;;;7.80;3.67;;;18.80;97.30;;;;;;5075384;28;20496;-68
2023/06/05 12:24:14;;;;;;;8.63;4.32;;;18.80;97.60;;;;;;5049119;28;20083;-64
2023/06/05 12:26:53;;;;;;;8.55;4.13;;;18.70;97.70;;;;;;5045680;28;20397;-66
2023/06/05 12:29:24;;;;;;;7.75;3.75;;;18.70;97.70;;;;;;5057513;28;20498;-68
2023/06/05 12:31:51;;;;;;;8.15;3.28;;;18.70;98.10;;;;;;5048859;28;20055;-67
2023/06/05 12:34:16;;;;;;;7.90;3.90;;;18.80;98.30;;;;;;5065044;28;20196;-66
2023/06/05 12:36:44;;;;;;;7.70;4.05;;;18.90;98.40;;;;;;5063348;28;20051;-64
2023/06/05 12:39:13;;;;;;;7.93;3.90;;;18.90;98.50;;;;;;5066334;28;20094;-67
2023/06/05 12:41:39;;;;;;;7.32;3.83;;;18.90;98.30;;;;;;5061604;28;20054;-66
2023/06/05 12:44:06;;;;;;;9.93;3.70;;;18.90;98.10;;;;;;5066506;28;20040;-67
2023/06/05 12:46:33;;;;;;;7.38;3.42;;;18.80;98.00;;;;;;5061619;28;20533;-68
2023/06/05 12:49:03;;;;;;;7.85;3.47;;;18.80;98.40;;;;;;5061472;28;20032;-66
2023/06/05 12:51:29;;;;;;;8.75;4.05;;;18.90;97.80;;;;;;5063328;28;20036;-66
2023/06/05 12:53:56;;;;;;;10.77;4.32;;;18.80;98.10;;;;;;5065725;28;20048;-68